sensor_id;sensor_type;location;lat;lon;timestamp;P1;durP1;ratioP1;P2;durP2;ratioP2
8708;SDS011;4391;48.678;9.280;2024-03-02T00:01:26;16.75;;;8.18;;
8708;SDS011;4391;48.678;9.280;2024-03-02T00:03:53;19.75;;;9.68;;
8708;SDS011;4391;48.678;9.280;2024-03-02T00:06:20;17.37;;;8.60;;
8708;SDS011;4391;48.678;9.280;2024-03-02T00:08:47;20.30;;;8.00;;
8708;SDS011;4391;48.678;9.280;2024-03-02T00:11:15;17.50;;;8.88;;
8708;SDS011;4391;48.678;9.280;2024-03-02T00:13:43;19.08;;;8.77;;
8708;SDS011;4391;48.678;9.280;2024-03-02T00:16:11;16.42;;;8.25;;
8708;SDS011;4391;48.678;9.280;2024-03-02T00:18:40;19.03;;;8.70;;
8708;SDS011;4391;48.678;9.280;2024-03-02T00:21:07;15.20;;;7.22;;
8708;SDS011;4391;48.678;9.280;2024-03-02T00:23:36;18.55;;;8.48;;
8708;SDS011;4391;48.678;9.280;2024-03-02T00:26:03;15.85;;;8.05;;
8708;SDS011;4391;48.678;9.280;2024-03-02T00:28:31;18.52;;;8.85;;
8708;SDS011;4391;48.678;9.280;2024-03-02T00:31:01;18.77;;;8.90;;
8708;SDS011;4391;48.678;9.280;2024-03-02T00:33:32;18.50;;;8.68;;
8708;SDS011;4391;48.678;9.280;2024-03-02T00:36:02;19.90;;;9.63;;
8708;SDS011;4391;48.678;9.280;2024-03-02T00:38:30;16.92;;;8.52;;
8708;SDS011;4391;48.678;9.280;2024-03-02T00:40:58;19.83;;;8.93;;
8708;SDS011;4391;48.678;9.280;2024-03-02T00:46:16;19.35;;;9.15;;
8708;SDS011;4391;48.678;9.280;2024-03-02T00:48:48;20.08;;;9.52;;
8708;SDS011;4391;48.678;9.280;2024-03-02T00:51:20;22.55;;;9.27;;
8708;SDS011;4391;48.678;9.280;2024-03-02T00:53:49;20.88;;;8.85;;
8708;SDS011;4391;48.678;9.280;2024-03-02T00:56:17;20.33;;;8.97;;
8708;SDS011;4391;48.678;9.280;2024-03-02T00:58:44;18.90;;;9.07;;
8708;SDS011;4391;48.678;9.280;2024-03-02T01:01:11;20.33;;;9.38;;
8708;SDS011;4391;48.678;9.280;2024-03-02T01:03:38;17.55;;;8.20;;
8708;SDS011;4391;48.678;9.280;2024-03-02T01:06:04;18.30;;;8.63;;
8708;SDS011;4391;48.678;9.280;2024-03-02T01:08:33;22.90;;;9.33;;
8708;SDS011;4391;48.678;9.280;2024-03-02T01:11:01;20.08;;;9.38;;
8708;SDS011;4391;48.678;9.280;2024-03-02T01:13:28;20.65;;;10.10;;
8708;SDS011;4391;48.678;9.280;2024-03-02T01:15:54;20.88;;;9.30;;
8708;SDS011;4391;48.678;9.280;2024-03-02T01:18:22;21.80;;;9.68;;
8708;SDS011;4391;48.678;9.280;2024-03-02T01:20:48;21.23;;;9.60;;
8708;SDS011;4391;48.678;9.280;2024-03-02T01:23:17;21.48;;;8.82;;
8708;SDS011;4391;48.678;9.280;2024-03-02T01:25:46;22.85;;;9.80;;
8708;SDS011;4391;48.678;9.280;2024-03-02T01:28:13;20.83;;;8.80;;
8708;SDS011;4391;48.678;9.280;2024-03-02T01:30:40;17.92;;;8.27;;
8708;SDS011;4391;48.678;9.280;2024-03-02T01:33:07;20.40;;;8.53;;
8708;SDS011;4391;48.678;9.280;2024-03-02T01:35:34;22.40;;;10.10;;
8708;SDS011;4391;48.678;9.280;2024-03-02T01:38:01;21.88;;;9.77;;
8708;SDS011;4391;48.678;9.280;2024-03-02T01:40:28;19.70;;;8.68;;
8708;SDS011;4391;48.678;9.280;2024-03-02T01:42:56;20.60;;;9.98;;
8708;SDS011;4391;48.678;9.280;2024-03-02T01:45:24;22.90;;;10.03;;
8708;SDS011;4391;48.678;9.280;2024-03-02T01:47:51;27.15;;;10.48;;
8708;SDS011;4391;48.678;9.280;2024-03-02T01:50:24;24.33;;;10.05;;
8708;SDS011;4391;48.678;9.280;2024-03-02T01:52:52;19.58;;;9.27;;
8708;SDS011;4391;48.678;9.280;2024-03-02T01:55:19;22.38;;;9.60;;
8708;SDS011;4391;48.678;9.280;2024-03-02T01:57:46;22.47;;;10.17;;
8708;SDS011;4391;48.678;9.280;2024-03-02T02:00:15;22.77;;;9.90;;
8708;SDS011;4391;48.678;9.280;2024-03-02T02:02:42;25.23;;;9.88;;
8708;SDS011;4391;48.678;9.280;2024-03-02T02:05:09;22.55;;;9.88;;
8708;SDS011;4391;48.678;9.280;2024-03-02T02:07:36;26.05;;;10.00;;
8708;SDS011;4391;48.678;9.280;2024-03-02T02:10:03;23.87;;;10.53;;
8708;SDS011;4391;48.678;9.280;2024-03-02T02:12:31;24.15;;;9.70;;
8708;SDS011;4391;48.678;9.280;2024-03-02T02:14:58;20.75;;;10.32;;
8708;SDS011;4391;48.678;9.280;2024-03-02T02:17:27;23.02;;;10.25;;
8708;SDS011;4391;48.678;9.280;2024-03-02T02:19:54;21.67;;;10.25;;
8708;SDS011;4391;48.678;9.280;2024-03-02T02:22:22;24.23;;;10.33;;
8708;SDS011;4391;48.678;9.280;2024-03-02T02:24:49;22.77;;;9.40;;
8708;SDS011;4391;48.678;9.280;2024-03-02T02:27:16;20.13;;;9.25;;
8708;SDS011;4391;48.678;9.280;2024-03-02T02:29:43;20.73;;;8.93;;
8708;SDS011;4391;48.678;9.280;2024-03-02T02:32:09;20.48;;;8.70;;
8708;SDS011;4391;48.678;9.280;2024-03-02T02:34:35;18.70;;;8.60;;
8708;SDS011;4391;48.678;9.280;2024-03-02T02:37:02;22.58;;;9.07;;
8708;SDS011;4391;48.678;9.280;2024-03-02T02:39:30;21.45;;;8.60;;
8708;SDS011;4391;48.678;9.280;2024-03-02T02:41:57;17.20;;;8.85;;
8708;SDS011;4391;48.678;9.280;2024-03-02T02:44:26;19.90;;;8.60;;
8708;SDS011;4391;48.678;9.280;2024-03-02T02:46:52;17.20;;;8.15;;
8708;SDS011;4391;48.678;9.280;2024-03-02T02:49:19;20.35;;;9.05;;
8708;SDS011;4391;48.678;9.280;2024-03-02T02:51:46;20.50;;;8.70;;
8708;SDS011;4391;48.678;9.280;2024-03-02T02:54:13;19.10;;;8.90;;
8708;SDS011;4391;48.678;9.280;2024-03-02T02:56:41;18.63;;;8.63;;
8708;SDS011;4391;48.678;9.280;2024-03-02T02:59:08;21.63;;;8.82;;
8708;SDS011;4391;48.678;9.280;2024-03-02T03:01:35;21.98;;;8.65;;
8708;SDS011;4391;48.678;9.280;2024-03-02T03:04:02;21.15;;;9.23;;
8708;SDS011;4391;48.678;9.280;2024-03-02T03:06:29;18.92;;;8.65;;
8708;SDS011;4391;48.678;9.280;2024-03-02T03:08:56;19.30;;;8.27;;
8708;SDS011;4391;48.678;9.280;2024-03-02T03:11:23;21.63;;;8.85;;
8708;SDS011;4391;48.678;9.280;2024-03-02T03:13:52;19.35;;;8.43;;
8708;SDS011;4391;48.678;9.280;2024-03-02T03:16:20;21.92;;;8.10;;
8708;SDS011;4391;48.678;9.280;2024-03-02T03:18:47;21.15;;;8.63;;
8708;SDS011;4391;48.678;9.280;2024-03-02T03:21:16;20.43;;;8.57;;
8708;SDS011;4391;48.678;9.280;2024-03-02T03:23:43;19.27;;;8.70;;
8708;SDS011;4391;48.678;9.280;2024-03-02T03:26:10;19.13;;;8.77;;
8708;SDS011;4391;48.678;9.280;2024-03-02T03:28:37;21.40;;;8.75;;
8708;SDS011;4391;48.678;9.280;2024-03-02T03:31:05;17.45;;;8.32;;
8708;SDS011;4391;48.678;9.280;2024-03-02T03:33:32;19.57;;;8.20;;
8708;SDS011;4391;48.678;9.280;2024-03-02T03:35:59;17.17;;;7.75;;
8708;SDS011;4391;48.678;9.280;2024-03-02T03:38:28;19.83;;;7.60;;
8708;SDS011;4391;48.678;9.280;2024-03-02T03:40:55;18.02;;;7.95;;
8708;SDS011;4391;48.678;9.280;2024-03-02T03:43:22;18.65;;;8.40;;
8708;SDS011;4391;48.678;9.280;2024-03-02T03:45:49;21.87;;;8.80;;
8708;SDS011;4391;48.678;9.280;2024-03-02T03:48:17;18.58;;;7.95;;
8708;SDS011;4391;48.678;9.280;2024-03-02T03:50:44;20.58;;;8.38;;
8708;SDS011;4391;48.678;9.280;2024-03-02T03:53:11;18.05;;;7.15;;
8708;SDS011;4391;48.678;9.280;2024-03-02T03:55:39;19.83;;;7.70;;
8708;SDS011;4391;48.678;9.280;2024-03-02T03:58:06;17.87;;;7.60;;
8708;SDS011;4391;48.678;9.280;2024-03-02T04:00:33;16.63;;;7.22;;
8708;SDS011;4391;48.678;9.280;2024-03-02T04:03:00;20.20;;;9.00;;
8708;SDS011;4391;48.678;9.280;2024-03-02T04:05:28;18.88;;;7.90;;
8708;SDS011;4391;48.678;9.280;2024-03-02T04:07:55;17.02;;;7.68;;
8708;SDS011;4391;48.678;9.280;2024-03-02T04:10:22;16.40;;;8.07;;
8708;SDS011;4391;48.678;9.280;2024-03-02T04:12:49;20.02;;;8.57;;
8708;SDS011;4391;48.678;9.280;2024-03-02T04:15:16;19.65;;;8.85;;
8708;SDS011;4391;48.678;9.280;2024-03-02T04:17:44;19.65;;;8.65;;
8708;SDS011;4391;48.678;9.280;2024-03-02T04:20:11;19.40;;;8.77;;
8708;SDS011;4391;48.678;9.280;2024-03-02T04:22:40;19.23;;;9.07;;
8708;SDS011;4391;48.678;9.280;2024-03-02T04:25:07;20.35;;;8.15;;
8708;SDS011;4391;48.678;9.280;2024-03-02T04:27:34;22.00;;;9.45;;
8708;SDS011;4391;48.678;9.280;2024-03-02T04:30:01;19.75;;;8.48;;
8708;SDS011;4391;48.678;9.280;2024-03-02T04:32:30;21.13;;;9.35;;
8708;SDS011;4391;48.678;9.280;2024-03-02T04:34:57;18.93;;;8.17;;
8708;SDS011;4391;48.678;9.280;2024-03-02T04:37:24;21.85;;;8.80;;
8708;SDS011;4391;48.678;9.280;2024-03-02T04:39:52;19.63;;;8.18;;
8708;SDS011;4391;48.678;9.280;2024-03-02T04:42:19;18.48;;;8.25;;
8708;SDS011;4391;48.678;9.280;2024-03-02T04:44:45;18.85;;;7.85;;
8708;SDS011;4391;48.678;9.280;2024-03-02T04:47:12;17.17;;;8.07;;
8708;SDS011;4391;48.678;9.280;2024-03-02T04:49:39;18.88;;;7.80;;
8708;SDS011;4391;48.678;9.280;2024-03-02T04:52:06;19.00;;;8.20;;
8708;SDS011;4391;48.678;9.280;2024-03-02T04:54:33;19.42;;;8.20;;
8708;SDS011;4391;48.678;9.280;2024-03-02T04:57:22;19.60;;;7.80;;
8708;SDS011;4391;48.678;9.280;2024-03-02T04:59:48;19.33;;;7.53;;
8708;SDS011;4391;48.678;9.280;2024-03-02T05:02:15;18.70;;;8.15;;
8708;SDS011;4391;48.678;9.280;2024-03-02T05:04:42;16.50;;;7.40;;
8708;SDS011;4391;48.678;9.280;2024-03-02T05:07:08;20.67;;;7.82;;
8708;SDS011;4391;48.678;9.280;2024-03-02T05:09:38;19.90;;;7.43;;
8708;SDS011;4391;48.678;9.280;2024-03-02T05:12:06;16.40;;;7.40;;
8708;SDS011;4391;48.678;9.280;2024-03-02T05:14:55;19.05;;;7.72;;
8708;SDS011;4391;48.678;9.280;2024-03-02T05:17:22;18.50;;;7.28;;
8708;SDS011;4391;48.678;9.280;2024-03-02T05:19:49;18.30;;;7.88;;
8708;SDS011;4391;48.678;9.280;2024-03-02T05:22:16;17.33;;;7.07;;
8708;SDS011;4391;48.678;9.280;2024-03-02T05:24:43;16.40;;;7.50;;
8708;SDS011;4391;48.678;9.280;2024-03-02T05:27:10;22.95;;;8.20;;
8708;SDS011;4391;48.678;9.280;2024-03-02T05:29:37;16.10;;;7.03;;
8708;SDS011;4391;48.678;9.280;2024-03-02T05:32:05;18.48;;;7.45;;
8708;SDS011;4391;48.678;9.280;2024-03-02T05:34:33;17.40;;;7.30;;
8708;SDS011;4391;48.678;9.280;2024-03-02T05:37:00;16.50;;;6.97;;
8708;SDS011;4391;48.678;9.280;2024-03-02T05:39:28;17.15;;;6.75;;
8708;SDS011;4391;48.678;9.280;2024-03-02T05:41:54;17.10;;;6.60;;
8708;SDS011;4391;48.678;9.280;2024-03-02T05:44:21;17.58;;;7.47;;
8708;SDS011;4391;48.678;9.280;2024-03-02T05:46:48;20.52;;;7.95;;
8708;SDS011;4391;48.678;9.280;2024-03-02T05:49:17;17.30;;;6.57;;
8708;SDS011;4391;48.678;9.280;2024-03-02T05:51:44;15.35;;;6.78;;
8708;SDS011;4391;48.678;9.280;2024-03-02T05:54:11;14.10;;;6.05;;
8708;SDS011;4391;48.678;9.280;2024-03-02T05:56:38;18.42;;;6.72;;
8708;SDS011;4391;48.678;9.280;2024-03-02T05:59:05;18.75;;;7.72;;
8708;SDS011;4391;48.678;9.280;2024-03-02T06:01:38;17.60;;;6.40;;
8708;SDS011;4391;48.678;9.280;2024-03-02T06:04:05;15.43;;;7.13;;
8708;SDS011;4391;48.678;9.280;2024-03-02T06:06:34;17.52;;;7.30;;
8708;SDS011;4391;48.678;9.280;2024-03-02T06:09:01;18.55;;;7.68;;
8708;SDS011;4391;48.678;9.280;2024-03-02T06:11:30;21.80;;;8.38;;
8708;SDS011;4391;48.678;9.280;2024-03-02T06:13:57;18.87;;;7.93;;
8708;SDS011;4391;48.678;9.280;2024-03-02T06:16:24;18.52;;;8.13;;
8708;SDS011;4391;48.678;9.280;2024-03-02T06:18:50;19.35;;;7.95;;
8708;SDS011;4391;48.678;9.280;2024-03-02T06:21:19;16.55;;;7.57;;
8708;SDS011;4391;48.678;9.280;2024-03-02T06:23:47;18.17;;;7.47;;
8708;SDS011;4391;48.678;9.280;2024-03-02T06:26:14;18.30;;;7.87;;
8708;SDS011;4391;48.678;9.280;2024-03-02T06:28:41;19.27;;;7.85;;
8708;SDS011;4391;48.678;9.280;2024-03-02T06:31:08;21.05;;;8.02;;
8708;SDS011;4391;48.678;9.280;2024-03-02T06:33:35;23.45;;;8.25;;
8708;SDS011;4391;48.678;9.280;2024-03-02T06:36:02;21.52;;;7.72;;
8708;SDS011;4391;48.678;9.280;2024-03-02T06:38:30;21.17;;;8.30;;
8708;SDS011;4391;48.678;9.280;2024-03-02T06:40:59;19.00;;;7.95;;
8708;SDS011;4391;48.678;9.280;2024-03-02T06:43:25;23.58;;;9.52;;
8708;SDS011;4391;48.678;9.280;2024-03-02T06:45:52;20.75;;;8.57;;
8708;SDS011;4391;48.678;9.280;2024-03-02T06:48:19;19.92;;;8.32;;
8708;SDS011;4391;48.678;9.280;2024-03-02T06:50:48;20.33;;;8.87;;
8708;SDS011;4391;48.678;9.280;2024-03-02T06:53:15;20.00;;;8.50;;
8708;SDS011;4391;48.678;9.280;2024-03-02T06:55:42;20.77;;;8.82;;
8708;SDS011;4391;48.678;9.280;2024-03-02T06:58:12;21.42;;;8.40;;
8708;SDS011;4391;48.678;9.280;2024-03-02T07:00:40;22.35;;;8.93;;
8708;SDS011;4391;48.678;9.280;2024-03-02T07:03:07;22.73;;;9.87;;
8708;SDS011;4391;48.678;9.280;2024-03-02T07:05:34;24.05;;;9.60;;
8708;SDS011;4391;48.678;9.280;2024-03-02T07:08:01;23.33;;;10.05;;
8708;SDS011;4391;48.678;9.280;2024-03-02T07:10:28;22.30;;;9.30;;
8708;SDS011;4391;48.678;9.280;2024-03-02T07:12:55;23.92;;;9.75;;
8708;SDS011;4391;48.678;9.280;2024-03-02T07:15:23;22.07;;;9.30;;
8708;SDS011;4391;48.678;9.280;2024-03-02T07:18:12;23.48;;;10.43;;
8708;SDS011;4391;48.678;9.280;2024-03-02T07:20:39;21.70;;;10.10;;
8708;SDS011;4391;48.678;9.280;2024-03-02T07:23:06;22.45;;;10.18;;
8708;SDS011;4391;48.678;9.280;2024-03-02T07:25:33;20.85;;;10.43;;
8708;SDS011;4391;48.678;9.280;2024-03-02T07:28:00;26.73;;;11.33;;
8708;SDS011;4391;48.678;9.280;2024-03-02T07:30:29;27.23;;;11.65;;
8708;SDS011;4391;48.678;9.280;2024-03-02T07:32:56;25.00;;;12.35;;
8708;SDS011;4391;48.678;9.280;2024-03-02T07:35:23;24.50;;;11.40;;
8708;SDS011;4391;48.678;9.280;2024-03-02T07:37:52;21.48;;;10.57;;
8708;SDS011;4391;48.678;9.280;2024-03-02T07:40:19;24.47;;;10.90;;
8708;SDS011;4391;48.678;9.280;2024-03-02T07:42:46;23.67;;;10.75;;
8708;SDS011;4391;48.678;9.280;2024-03-02T07:45:13;28.50;;;10.52;;
8708;SDS011;4391;48.678;9.280;2024-03-02T07:47:43;21.30;;;9.85;;
8708;SDS011;4391;48.678;9.280;2024-03-02T07:50:10;21.67;;;9.93;;
8708;SDS011;4391;48.678;9.280;2024-03-02T07:52:37;20.30;;;10.37;;
8708;SDS011;4391;48.678;9.280;2024-03-02T07:55:04;20.50;;;9.93;;
8708;SDS011;4391;48.678;9.280;2024-03-02T07:57:31;18.13;;;9.25;;
8708;SDS011;4391;48.678;9.280;2024-03-02T07:59:58;21.08;;;9.25;;
8708;SDS011;4391;48.678;9.280;2024-03-02T08:02:25;17.15;;;8.50;;
8708;SDS011;4391;48.678;9.280;2024-03-02T08:04:54;19.73;;;8.57;;
8708;SDS011;4391;48.678;9.280;2024-03-02T08:07:21;19.42;;;9.15;;
8708;SDS011;4391;48.678;9.280;2024-03-02T08:09:48;17.52;;;8.65;;
8708;SDS011;4391;48.678;9.280;2024-03-02T08:12:15;16.38;;;8.25;;
8708;SDS011;4391;48.678;9.280;2024-03-02T08:14:43;16.52;;;8.20;;
8708;SDS011;4391;48.678;9.280;2024-03-02T08:17:10;19.50;;;9.53;;
8708;SDS011;4391;48.678;9.280;2024-03-02T08:19:37;20.90;;;9.00;;
8708;SDS011;4391;48.678;9.280;2024-03-02T08:22:05;17.73;;;8.40;;
8708;SDS011;4391;48.678;9.280;2024-03-02T08:24:33;19.17;;;8.35;;
8708;SDS011;4391;48.678;9.280;2024-03-02T08:27:00;16.00;;;8.13;;
8708;SDS011;4391;48.678;9.280;2024-03-02T08:29:28;18.00;;;8.50;;
8708;SDS011;4391;48.678;9.280;2024-03-02T08:31:58;16.65;;;7.97;;
8708;SDS011;4391;48.678;9.280;2024-03-02T08:34:24;21.88;;;9.23;;
8708;SDS011;4391;48.678;9.280;2024-03-02T08:36:51;20.88;;;9.55;;
8708;SDS011;4391;48.678;9.280;2024-03-02T08:39:20;19.92;;;11.07;;
8708;SDS011;4391;48.678;9.280;2024-03-02T08:41:47;20.07;;;9.80;;
8708;SDS011;4391;48.678;9.280;2024-03-02T08:44:14;20.80;;;9.75;;
8708;SDS011;4391;48.678;9.280;2024-03-02T08:46:41;21.85;;;10.15;;
8708;SDS011;4391;48.678;9.280;2024-03-02T08:49:08;18.15;;;9.60;;
8708;SDS011;4391;48.678;9.280;2024-03-02T08:51:34;19.30;;;10.25;;
8708;SDS011;4391;48.678;9.280;2024-03-02T08:54:01;19.07;;;10.83;;
8708;SDS011;4391;48.678;9.280;2024-03-02T08:56:30;20.13;;;10.15;;
8708;SDS011;4391;48.678;9.280;2024-03-02T08:58:57;17.08;;;9.38;;
8708;SDS011;4391;48.678;9.280;2024-03-02T09:01:24;17.27;;;8.65;;
8708;SDS011;4391;48.678;9.280;2024-03-02T09:03:51;15.85;;;8.00;;
8708;SDS011;4391;48.678;9.280;2024-03-02T09:06:18;14.90;;;7.57;;
8708;SDS011;4391;48.678;9.280;2024-03-02T09:08:46;14.52;;;7.15;;
8708;SDS011;4391;48.678;9.280;2024-03-02T09:11:14;12.60;;;7.20;;
8708;SDS011;4391;48.678;9.280;2024-03-02T09:13:43;16.17;;;7.43;;
8708;SDS011;4391;48.678;9.280;2024-03-02T09:16:10;13.95;;;7.90;;
8708;SDS011;4391;48.678;9.280;2024-03-02T09:18:37;15.03;;;8.63;;
8708;SDS011;4391;48.678;9.280;2024-03-02T09:21:04;13.57;;;7.75;;
8708;SDS011;4391;48.678;9.280;2024-03-02T09:23:31;13.57;;;7.47;;
8708;SDS011;4391;48.678;9.280;2024-03-02T09:25:58;13.18;;;7.35;;
8708;SDS011;4391;48.678;9.280;2024-03-02T09:28:25;15.07;;;7.10;;
8708;SDS011;4391;48.678;9.280;2024-03-02T09:30:54;11.43;;;6.67;;
8708;SDS011;4391;48.678;9.280;2024-03-02T09:33:21;11.35;;;6.57;;
8708;SDS011;4391;48.678;9.280;2024-03-02T09:35:48;11.05;;;6.57;;
8708;SDS011;4391;48.678;9.280;2024-03-02T09:38:15;13.38;;;5.97;;
8708;SDS011;4391;48.678;9.280;2024-03-02T09:40:42;10.35;;;5.93;;
8708;SDS011;4391;48.678;9.280;2024-03-02T09:43:09;11.97;;;6.60;;
8708;SDS011;4391;48.678;9.280;2024-03-02T09:45:36;10.55;;;6.32;;
8708;SDS011;4391;48.678;9.280;2024-03-02T09:48:05;10.15;;;5.53;;
8708;SDS011;4391;48.678;9.280;2024-03-02T09:50:33;10.70;;;5.40;;
8708;SDS011;4391;48.678;9.280;2024-03-02T09:53:00;9.45;;;5.57;;
8708;SDS011;4391;48.678;9.280;2024-03-02T09:55:27;9.97;;;5.33;;
8708;SDS011;4391;48.678;9.280;2024-03-02T09:57:54;9.02;;;5.30;;
8708;SDS011;4391;48.678;9.280;2024-03-02T10:00:22;10.57;;;4.90;;
8708;SDS011;4391;48.678;9.280;2024-03-02T10:02:50;6.90;;;3.80;;
8708;SDS011;4391;48.678;9.280;2024-03-02T10:05:24;9.85;;;4.15;;
8708;SDS011;4391;48.678;9.280;2024-03-02T10:07:58;9.57;;;4.30;;
8708;SDS011;4391;48.678;9.280;2024-03-02T10:10:34;7.43;;;3.83;;
8708;SDS011;4391;48.678;9.280;2024-03-02T10:13:05;7.40;;;3.55;;
8708;SDS011;4391;48.678;9.280;2024-03-02T10:15:34;5.72;;;2.75;;
8708;SDS011;4391;48.678;9.280;2024-03-02T10:18:01;6.47;;;2.90;;
8708;SDS011;4391;48.678;9.280;2024-03-02T10:20:30;5.33;;;2.53;;
8708;SDS011;4391;48.678;9.280;2024-03-02T10:23:09;5.35;;;2.33;;
8708;SDS011;4391;48.678;9.280;2024-03-02T10:25:37;5.88;;;2.75;;
8708;SDS011;4391;48.678;9.280;2024-03-02T10:28:04;4.95;;;2.28;;
8708;SDS011;4391;48.678;9.280;2024-03-02T10:30:32;8.10;;;2.53;;
8708;SDS011;4391;48.678;9.280;2024-03-02T10:32:59;5.67;;;2.13;;
8708;SDS011;4391;48.678;9.280;2024-03-02T10:35:27;4.60;;;2.30;;
8708;SDS011;4391;48.678;9.280;2024-03-02T10:37:57;5.90;;;3.03;;
8708;SDS011;4391;48.678;9.280;2024-03-02T10:40:26;5.07;;;2.60;;
8708;SDS011;4391;48.678;9.280;2024-03-02T10:42:53;5.88;;;3.50;;
8708;SDS011;4391;48.678;9.280;2024-03-02T10:45:21;5.07;;;2.70;;
8708;SDS011;4391;48.678;9.280;2024-03-02T10:47:49;4.60;;;2.38;;
8708;SDS011;4391;48.678;9.280;2024-03-02T10:50:16;5.05;;;2.63;;
8708;SDS011;4391;48.678;9.280;2024-03-02T10:52:43;5.95;;;2.85;;
8708;SDS011;4391;48.678;9.280;2024-03-02T10:55:12;5.10;;;2.38;;
8708;SDS011;4391;48.678;9.280;2024-03-02T10:57:45;5.50;;;2.40;;
8708;SDS011;4391;48.678;9.280;2024-03-02T11:00:18;5.15;;;2.10;;
8708;SDS011;4391;48.678;9.280;2024-03-02T11:02:50;4.88;;;2.42;;
8708;SDS011;4391;48.678;9.280;2024-03-02T11:05:22;4.53;;;2.05;;
8708;SDS011;4391;48.678;9.280;2024-03-02T11:07:53;4.88;;;1.98;;
8708;SDS011;4391;48.678;9.280;2024-03-02T11:10:23;6.20;;;1.90;;
8708;SDS011;4391;48.678;9.280;2024-03-02T11:12:53;4.63;;;1.90;;
8708;SDS011;4391;48.678;9.280;2024-03-02T11:15:23;5.80;;;1.70;;
8708;SDS011;4391;48.678;9.280;2024-03-02T11:17:52;4.22;;;1.70;;
8708;SDS011;4391;48.678;9.280;2024-03-02T11:20:20;4.63;;;2.03;;
8708;SDS011;4391;48.678;9.280;2024-03-02T11:22:47;3.70;;;1.60;;
8708;SDS011;4391;48.678;9.280;2024-03-02T11:25:25;3.38;;;1.55;;
8708;SDS011;4391;48.678;9.280;2024-03-02T11:28:00;3.08;;;1.27;;
8708;SDS011;4391;48.678;9.280;2024-03-02T11:33:22;5.43;;;1.50;;
8708;SDS011;4391;48.678;9.280;2024-03-02T11:35:52;3.40;;;1.47;;
8708;SDS011;4391;48.678;9.280;2024-03-02T11:38:19;3.90;;;1.40;;
8708;SDS011;4391;48.678;9.280;2024-03-02T11:40:47;3.53;;;1.50;;
8708;SDS011;4391;48.678;9.280;2024-03-02T11:43:14;3.20;;;1.40;;
8708;SDS011;4391;48.678;9.280;2024-03-02T11:45:41;4.35;;;1.30;;
8708;SDS011;4391;48.678;9.280;2024-03-02T11:48:10;3.10;;;1.33;;
8708;SDS011;4391;48.678;9.280;2024-03-02T11:50:41;6.93;;;1.48;;
8708;SDS011;4391;48.678;9.280;2024-03-02T11:53:13;3.88;;;1.40;;
8708;SDS011;4391;48.678;9.280;2024-03-02T11:55:41;3.50;;;1.35;;
8708;SDS011;4391;48.678;9.280;2024-03-02T11:58:12;3.22;;;1.23;;
8708;SDS011;4391;48.678;9.280;2024-03-02T12:00:40;4.17;;;1.40;;
8708;SDS011;4391;48.678;9.280;2024-03-02T12:03:07;4.13;;;1.20;;
8708;SDS011;4391;48.678;9.280;2024-03-02T12:05:36;8.23;;;2.10;;
8708;SDS011;4391;48.678;9.280;2024-03-02T12:08:03;2.97;;;1.30;;
8708;SDS011;4391;48.678;9.280;2024-03-02T12:10:31;6.85;;;1.65;;
8708;SDS011;4391;48.678;9.280;2024-03-02T12:12:59;2.90;;;1.30;;
8708;SDS011;4391;48.678;9.280;2024-03-02T12:15:29;3.38;;;1.10;;
8708;SDS011;4391;48.678;9.280;2024-03-02T12:17:58;2.97;;;0.98;;
8708;SDS011;4391;48.678;9.280;2024-03-02T12:20:26;6.65;;;1.30;;
8708;SDS011;4391;48.678;9.280;2024-03-02T12:22:54;5.07;;;1.27;;
8708;SDS011;4391;48.678;9.280;2024-03-02T12:25:23;2.80;;;1.10;;
8708;SDS011;4391;48.678;9.280;2024-03-02T12:27:51;2.20;;;0.77;;
8708;SDS011;4391;48.678;9.280;2024-03-02T12:30:21;3.53;;;1.17;;
8708;SDS011;4391;48.678;9.280;2024-03-02T12:32:50;5.25;;;1.30;;
8708;SDS011;4391;48.678;9.280;2024-03-02T12:35:17;3.58;;;0.90;;
8708;SDS011;4391;48.678;9.280;2024-03-02T12:37:46;2.57;;;0.90;;
8708;SDS011;4391;48.678;9.280;2024-03-02T12:40:15;2.10;;;0.70;;
8708;SDS011;4391;48.678;9.280;2024-03-02T12:42:43;4.53;;;1.00;;
8708;SDS011;4391;48.678;9.280;2024-03-02T12:45:11;3.22;;;0.90;;
8708;SDS011;4391;48.678;9.280;2024-03-02T12:47:39;1.77;;;0.60;;
8708;SDS011;4391;48.678;9.280;2024-03-02T12:50:08;3.03;;;0.80;;
8708;SDS011;4391;48.678;9.280;2024-03-02T12:52:36;2.17;;;0.80;;
8708;SDS011;4391;48.678;9.280;2024-03-02T12:55:05;2.20;;;0.70;;
8708;SDS011;4391;48.678;9.280;2024-03-02T12:57:32;4.20;;;0.95;;
8708;SDS011;4391;48.678;9.280;2024-03-02T13:00:00;2.72;;;0.90;;
8708;SDS011;4391;48.678;9.280;2024-03-02T13:02:30;2.60;;;0.90;;
8708;SDS011;4391;48.678;9.280;2024-03-02T13:04:57;2.72;;;0.93;;
8708;SDS011;4391;48.678;9.280;2024-03-02T13:07:26;1.70;;;0.70;;
8708;SDS011;4391;48.678;9.280;2024-03-02T13:09:53;2.00;;;0.50;;
8708;SDS011;4391;48.678;9.280;2024-03-02T13:12:21;1.42;;;0.50;;
8708;SDS011;4391;48.678;9.280;2024-03-02T13:14:49;1.40;;;0.50;;
8708;SDS011;4391;48.678;9.280;2024-03-02T13:17:17;2.42;;;0.90;;
8708;SDS011;4391;48.678;9.280;2024-03-02T13:19:53;2.70;;;0.60;;
8708;SDS011;4391;48.678;9.280;2024-03-02T13:22:21;1.85;;;0.68;;
8708;SDS011;4391;48.678;9.280;2024-03-02T13:24:49;1.88;;;0.60;;
8708;SDS011;4391;48.678;9.280;2024-03-02T13:27:17;3.87;;;0.80;;
8708;SDS011;4391;48.678;9.280;2024-03-02T13:29:45;2.38;;;0.65;;
8708;SDS011;4391;48.678;9.280;2024-03-02T13:32:14;2.45;;;0.80;;
8708;SDS011;4391;48.678;9.280;2024-03-02T13:34:49;3.03;;;0.60;;
8708;SDS011;4391;48.678;9.280;2024-03-02T13:37:16;2.03;;;0.50;;
8708;SDS011;4391;48.678;9.280;2024-03-02T13:39:43;2.43;;;0.60;;
8708;SDS011;4391;48.678;9.280;2024-03-02T13:42:12;2.75;;;0.60;;
8708;SDS011;4391;48.678;9.280;2024-03-02T13:44:40;2.10;;;0.70;;
8708;SDS011;4391;48.678;9.280;2024-03-02T13:47:10;1.98;;;0.70;;
8708;SDS011;4391;48.678;9.280;2024-03-02T13:49:37;3.15;;;1.00;;
8708;SDS011;4391;48.678;9.280;2024-03-02T13:52:08;2.50;;;0.80;;
8708;SDS011;4391;48.678;9.280;2024-03-02T13:54:38;4.38;;;2.13;;
8708;SDS011;4391;48.678;9.280;2024-03-02T13:57:07;2.78;;;1.00;;
8708;SDS011;4391;48.678;9.280;2024-03-02T13:59:36;4.90;;;1.35;;
8708;SDS011;4391;48.678;9.280;2024-03-02T14:02:08;2.45;;;0.80;;
8708;SDS011;4391;48.678;9.280;2024-03-02T14:04:35;2.43;;;1.00;;
8708;SDS011;4391;48.678;9.280;2024-03-02T14:07:03;2.92;;;0.70;;
8708;SDS011;4391;48.678;9.280;2024-03-02T14:09:32;3.08;;;0.70;;
8708;SDS011;4391;48.678;9.280;2024-03-02T14:11:59;1.70;;;0.70;;
8708;SDS011;4391;48.678;9.280;2024-03-02T14:14:26;2.85;;;0.70;;
8708;SDS011;4391;48.678;9.280;2024-03-02T14:16:55;2.07;;;0.70;;
8708;SDS011;4391;48.678;9.280;2024-03-02T14:19:25;1.90;;;0.60;;
8708;SDS011;4391;48.678;9.280;2024-03-02T14:21:52;2.42;;;0.75;;
8708;SDS011;4391;48.678;9.280;2024-03-02T14:24:20;1.90;;;0.70;;
8708;SDS011;4391;48.678;9.280;2024-03-02T14:26:49;1.60;;;0.60;;
8708;SDS011;4391;48.678;9.280;2024-03-02T14:29:16;3.53;;;0.57;;
8708;SDS011;4391;48.678;9.280;2024-03-02T14:31:43;1.38;;;0.50;;
8708;SDS011;4391;48.678;9.280;2024-03-02T14:34:14;1.83;;;0.50;;
8708;SDS011;4391;48.678;9.280;2024-03-02T14:36:41;2.33;;;0.70;;
8708;SDS011;4391;48.678;9.280;2024-03-02T14:39:09;1.27;;;0.40;;
8708;SDS011;4391;48.678;9.280;2024-03-02T14:41:36;1.30;;;0.50;;
8708;SDS011;4391;48.678;9.280;2024-03-02T14:44:03;1.58;;;0.47;;
8708;SDS011;4391;48.678;9.280;2024-03-02T14:46:31;1.83;;;0.68;;
8708;SDS011;4391;48.678;9.280;2024-03-02T14:49:02;2.28;;;0.65;;
8708;SDS011;4391;48.678;9.280;2024-03-02T14:52:08;4.22;;;0.63;;
8708;SDS011;4391;48.678;9.280;2024-03-02T14:54:36;2.10;;;0.67;;
8708;SDS011;4391;48.678;9.280;2024-03-02T14:57:13;3.45;;;0.80;;
8708;SDS011;4391;48.678;9.280;2024-03-02T14:59:40;2.70;;;0.60;;
8708;SDS011;4391;48.678;9.280;2024-03-02T15:02:13;1.92;;;0.85;;
8708;SDS011;4391;48.678;9.280;2024-03-02T15:05:29;2.42;;;0.80;;
8708;SDS011;4391;48.678;9.280;2024-03-02T15:21:24;1.63;;;0.52;;
8708;SDS011;4391;48.678;9.280;2024-03-02T15:23:51;2.23;;;0.60;;
8708;SDS011;4391;48.678;9.280;2024-03-02T15:26:18;1.77;;;0.70;;
8708;SDS011;4391;48.678;9.280;2024-03-02T15:28:44;2.00;;;0.75;;
8708;SDS011;4391;48.678;9.280;2024-03-02T15:31:11;1.60;;;0.70;;